Time;durP1;ratioP1;P1;durP2;ratioP2;P2;SDS_P1;SDS_P2;PMS_P1;PMS_P2;Temp;Humidity;BMP_temperature;BMP_pressure;BME280_temperature;BME280_humidity;BME280_pressure;Samples;Min_cycle;Max_cycle;Signal;HPM_P1;HPM_P2
2022/01/05 00:00:14;;;;;;;2.20;2.03;;;;;;;;;;4985451;28;20187;-57
2022/01/05 00:02:40;;;;;;;2.67;2.47;;;;;;;;;;4979155;28;20716;-57
2022/01/05 00:05:05;;;;;;;2.85;2.60;;;;;;;;;;4982116;28;20234;-57
2022/01/05 00:07:31;;;;;;;2.53;2.33;;;;;;;;;;5004685;28;20667;-57
2022/01/05 00:09:56;;;;;;;2.60;2.40;;;;;;;;;;5004177;28;20237;-57
2022/01/05 00:12:21;;;;;;;2.83;2.60;;;;;;;;;;5000354;28;20172;-57
2022/01/05 00:14:46;;;;;;;2.58;2.38;;;;;;;;;;4992340;28;20676;-57
2022/01/05 00:17:11;;;;;;;3.42;2.78;;;;;;;;;;4996702;28;20282;-57
2022/01/05 00:19:37;;;;;;;3.33;2.70;;;;;;;;;;5004658;28;20187;-57
2022/01/05 00:22:02;;;;;;;3.03;2.72;;;;;;;;;;4997624;28;20178;-56
2022/01/05 00:24:28;;;;;;;2.35;2.20;;;;;;;;;;4998604;28;20195;-57
2022/01/05 00:26:53;;;;;;;3.67;2.53;;;;;;;;;;5003348;28;20167;-56
2022/01/05 00:29:18;;;;;;;2.10;2.00;;;;;;;;;;5000011;28;20194;-56
2022/01/05 00:31:44;;;;;;;2.97;2.28;;;;;;;;;;4996995;28;20175;-56
2022/01/05 00:34:09;;;;;;;2.75;2.55;;;;;;;;;;5000472;28;20198;-57
2022/01/05 00:36:34;;;;;;;3.85;2.45;;;;;;;;;;4995378;28;20175;-57
2022/01/05 00:39:00;;;;;;;3.28;2.63;;;;;;;;;;4991959;28;20179;-57
2022/01/05 00:41:25;;;;;;;2.60;2.40;;;;;;;;;;5027287;28;20225;-57
2022/01/05 00:43:50;;;;;;;3.85;2.58;;;;;;;;;;4997609;28;20206;-57
2022/01/05 00:46:15;;;;;;;2.63;2.42;;;;;;;;;;4998473;28;20473;-56
2022/01/05 00:48:40;;;;;;;2.20;2.10;;;;;;;;;;4996019;28;20176;-57
2022/01/05 00:51:07;;;;;;;2.25;2.10;;;;;;;;;;4998900;28;20234;-56
2022/01/05 00:53:33;;;;;;;2.50;2.30;;;;;;;;;;4995119;28;20700;-56
2022/01/05 00:55:59;;;;;;;4.95;2.25;;;;;;;;;;4994030;28;20194;-56
2022/01/05 00:58:24;;;;;;;2.47;2.28;;;;;;;;;;5000648;28;20176;-56
2022/01/05 01:00:49;;;;;;;2.47;2.28;;;;;;;;;;5003597;28;20703;-56
2022/01/05 01:03:14;;;;;;;2.90;2.70;;;;;;;;;;4996669;28;20965;-56
2022/01/05 01:05:40;;;;;;;2.78;2.47;;;;;;;;;;4997157;28;20795;-56
2022/01/05 01:08:05;;;;;;;3.95;2.80;;;;;;;;;;4999132;28;20818;-56
2022/01/05 01:10:30;;;;;;;2.83;2.63;;;;;;;;;;4992377;28;20167;-56
2022/01/05 01:12:56;;;;;;;3.63;2.40;;;;;;;;;;4998034;28;20225;-57
2022/01/05 01:15:21;;;;;;;2.47;2.38;;;;;;;;;;4988733;28;20179;-56
2022/01/05 01:17:46;;;;;;;2.20;2.08;;;;;;;;;;4995508;28;20175;-56
2022/01/05 01:20:11;;;;;;;6.53;2.10;;;;;;;;;;4999951;28;20187;-56
2022/01/05 01:22:37;;;;;;;3.58;2.30;;;;;;;;;;5002934;28;20178;-56
2022/01/05 01:25:03;;;;;;;2.30;2.10;;;;;;;;;;4995152;28;20289;-56
2022/01/05 01:27:29;;;;;;;2.30;2.10;;;;;;;;;;4996983;28;20266;-56
2022/01/05 01:29:54;;;;;;;3.28;2.42;;;;;;;;;;4996281;28;20262;-56
2022/01/05 01:32:19;;;;;;;2.65;2.45;;;;;;;;;;4997531;28;20184;-57
2022/01/05 01:34:44;;;;;;;2.63;2.38;;;;;;;;;;4993518;28;20234;-56
2022/01/05 01:37:10;;;;;;;1.98;1.88;;;;;;;;;;4997673;28;20691;-56
2022/01/05 01:39:35;;;;;;;2.67;2.47;;;;;;;;;;5005387;28;20186;-56
2022/01/05 01:42:00;;;;;;;2.38;2.17;;;;;;;;;;4998334;28;20261;-56
2022/01/05 01:44:26;;;;;;;2.50;2.30;;;;;;;;;;4992611;28;20750;-56
2022/01/05 01:46:53;;;;;;;2.47;2.30;;;;;;;;;;4996271;28;20203;-56
2022/01/05 01:49:19;;;;;;;2.88;2.30;;;;;;;;;;4997480;28;20254;-57
2022/01/05 01:51:44;;;;;;;2.20;2.10;;;;;;;;;;5004548;28;20274;-57
2022/01/05 01:54:09;;;;;;;2.60;2.40;;;;;;;;;;5000156;28;20564;-56
2022/01/05 01:56:35;;;;;;;2.45;2.25;;;;;;;;;;4997965;28;20180;-56
2022/01/05 01:59:01;;;;;;;2.38;2.28;;;;;;;;;;5002244;28;20206;-57
2022/01/05 02:01:26;;;;;;;2.05;1.95;;;;;;;;;;4994710;28;21420;-57
2022/01/05 02:03:51;;;;;;;2.40;2.00;;;;;;;;;;4997464;28;20208;-57
2022/01/05 02:06:17;;;;;;;3.53;2.97;;;;;;;;;;4986298;28;20226;-56
2022/01/05 02:08:42;;;;;;;2.58;2.38;;;;;;;;;;4975853;28;20199;-57
2022/01/05 02:11:08;;;;;;;3.67;3.00;;;;;;;;;;4978767;28;20821;-57
2022/01/05 02:13:34;;;;;;;5.07;3.55;;;;;;;;;;4996984;28;20176;-57
2022/01/05 02:15:59;;;;;;;6.18;2.90;;;;;;;;;;4999962;28;20199;-57
2022/01/05 02:20:57;;;;;;;6.47;4.22;;;;;;;;;;4993605;28;20182;-57
2022/01/05 02:23:22;;;;;;;4.47;3.72;;;;;;;;;;5003552;28;20272;-57
2022/01/05 02:25:48;;;;;;;8.85;5.63;;;;;;;;;;4998833;28;20314;-57
2022/01/05 02:28:13;;;;;;;12.88;6.30;;;;;;;;;;4977261;28;20912;-57
2022/01/05 02:30:39;;;;;;;5.28;4.38;;;;;;;;;;4977589;28;20176;-57
2022/01/05 02:33:04;;;;;;;7.13;4.45;;;;;;;;;;4983250;28;20187;-57
2022/01/05 02:35:30;;;;;;;4.53;2.95;;;;;;;;;;4997916;28;20679;-57
2022/01/05 02:37:55;;;;;;;5.72;3.42;;;;;;;;;;5001463;28;20183;-57
2022/01/05 02:40:21;;;;;;;8.25;4.82;;;;;;;;;;4998470;28;20674;-57
2022/01/05 02:42:47;;;;;;;8.20;5.50;;;;;;;;;;4998505;28;20183;-57
2022/01/05 02:45:13;;;;;;;11.85;6.43;;;;;;;;;;5000495;28;20286;-57
2022/01/05 02:47:38;;;;;;;9.60;5.82;;;;;;;;;;4999514;28;20183;-56
2022/01/05 02:50:05;;;;;;;7.70;5.50;;;;;;;;;;4998740;28;20209;-56
2022/01/05 02:52:30;;;;;;;8.88;5.35;;;;;;;;;;5001076;28;20186;-56
2022/01/05 02:54:55;;;;;;;7.25;5.13;;;;;;;;;;5002794;28;20183;-56
2022/01/05 02:57:21;;;;;;;5.50;4.35;;;;;;;;;;5000903;28;20180;-56
2022/01/05 02:59:46;;;;;;;8.60;4.75;;;;;;;;;;4994366;28;20191;-56
2022/01/05 03:02:11;;;;;;;7.28;4.22;;;;;;;;;;4997587;28;20649;-56
2022/01/05 03:04:36;;;;;;;4.72;3.55;;;;;;;;;;4997815;28;20219;-56
2022/01/05 03:07:02;;;;;;;3.20;2.60;;;;;;;;;;5001937;28;20619;-56
2022/01/05 03:09:27;;;;;;;2.25;2.05;;;;;;;;;;5000953;28;20225;-56
2022/01/05 03:11:52;;;;;;;3.47;2.70;;;;;;;;;;4999165;28;20178;-56
2022/01/05 03:14:18;;;;;;;2.50;2.30;;;;;;;;;;5001330;28;20185;-56
2022/01/05 03:16:43;;;;;;;4.30;2.30;;;;;;;;;;4999682;28;20172;-56
2022/01/05 03:19:09;;;;;;;2.08;1.98;;;;;;;;;;4999820;28;20215;-57
2022/01/05 03:21:34;;;;;;;2.13;1.90;;;;;;;;;;4991847;28;20238;-57
2022/01/05 03:23:59;;;;;;;3.05;2.80;;;;;;;;;;4992574;28;20226;-56
2022/01/05 03:26:24;;;;;;;2.17;2.08;;;;;;;;;;4993001;28;20284;-57
2022/01/05 03:28:50;;;;;;;2.05;1.95;;;;;;;;;;5000995;28;20258;-56
2022/01/05 03:31:15;;;;;;;2.50;2.30;;;;;;;;;;4981487;28;20195;-56
2022/01/05 03:33:40;;;;;;;2.55;2.35;;;;;;;;;;4979833;28;20604;-57
2022/01/05 03:36:05;;;;;;;2.88;1.80;;;;;;;;;;4989034;28;20206;-57
2022/01/05 03:38:31;;;;;;;2.28;2.08;;;;;;;;;;5006039;28;20187;-57
2022/01/05 03:40:56;;;;;;;1.83;1.73;;;;;;;;;;4994873;28;20180;-56
2022/01/05 03:43:22;;;;;;;3.05;2.75;;;;;;;;;;4999715;28;20939;-57
2022/01/05 03:45:47;;;;;;;2.00;1.90;;;;;;;;;;4998170;28;20692;-57
2022/01/05 03:48:14;;;;;;;1.70;1.60;;;;;;;;;;4994793;28;20195;-57
2022/01/05 03:50:40;;;;;;;1.92;1.83;;;;;;;;;;4989327;28;20175;-57
2022/01/05 03:53:05;;;;;;;1.80;1.70;;;;;;;;;;4978104;28;20273;-57
2022/01/05 03:55:34;;;;;;;3.65;2.17;;;;;;;;;;4980294;28;20219;-57
2022/01/05 03:57:59;;;;;;;3.05;2.53;;;;;;;;;;4999830;28;20192;-57
2022/01/05 04:00:26;;;;;;;2.70;2.45;;;;;;;;;;4992981;28;20180;-56
2022/01/05 04:02:52;;;;;;;2.78;2.58;;;;;;;;;;4995382;28;20238;-56
2022/01/05 04:05:17;;;;;;;6.32;4.50;;;;;;;;;;5000491;28;20207;-56
2022/01/05 04:07:42;;;;;;;4.03;3.33;;;;;;;;;;4998072;28;20187;-57
2022/01/05 04:10:08;;;;;;;2.33;2.13;;;;;;;;;;4997994;28;20286;-56
2022/01/05 04:12:33;;;;;;;2.05;1.77;;;;;;;;;;5002226;28;20186;-56
2022/01/05 04:14:58;;;;;;;1.98;1.88;;;;;;;;;;4997710;28;20274;-57
2022/01/05 04:17:24;;;;;;;3.35;3.05;;;;;;;;;;5000376;28;21168;-57
2022/01/05 04:19:49;;;;;;;2.40;2.20;;;;;;;;;;5006270;28;20187;-57
2022/01/05 04:22:15;;;;;;;3.03;2.78;;;;;;;;;;4998637;28;20583;-57
2022/01/05 04:24:40;;;;;;;2.60;2.40;;;;;;;;;;5000189;28;20203;-56
2022/01/05 04:27:05;;;;;;;3.78;2.72;;;;;;;;;;4994084;28;20180;-56
2022/01/05 04:29:30;;;;;;;2.25;2.15;;;;;;;;;;5000318;28;20195;-57
2022/01/05 04:31:56;;;;;;;2.53;2.20;;;;;;;;;;4991262;28;20984;-57
2022/01/05 04:34:21;;;;;;;2.55;2.35;;;;;;;;;;4978810;28;20195;-57
2022/01/05 04:36:46;;;;;;;3.10;2.08;;;;;;;;;;4978570;28;20880;-57
2022/01/05 04:39:11;;;;;;;2.50;2.30;;;;;;;;;;4987254;28;20549;-56
2022/01/05 04:41:37;;;;;;;2.15;1.90;;;;;;;;;;5001040;28;20238;-57
2022/01/05 04:44:02;;;;;;;2.38;2.10;;;;;;;;;;5001592;28;20304;-57
2022/01/05 04:46:27;;;;;;;3.40;3.10;;;;;;;;;;4996404;28;20289;-57
2022/01/05 04:48:53;;;;;;;11.48;6.78;;;;;;;;;;4992044;28;20680;-57
2022/01/05 04:51:18;;;;;;;13.90;8.73;;;;;;;;;;4998548;28;20618;-58
2022/01/05 04:53:43;;;;;;;13.90;9.23;;;;;;;;;;4998075;28;20200;-57
2022/01/05 04:56:08;;;;;;;16.23;9.77;;;;;;;;;;4977461;28;20198;-57
2022/01/05 04:58:34;;;;;;;14.55;8.23;;;;;;;;;;4979087;28;20183;-57
2022/01/05 05:00:59;;;;;;;17.33;9.30;;;;;;;;;;4998885;28;20188;-57
2022/01/05 05:03:24;;;;;;;14.30;9.35;;;;;;;;;;5002796;28;20219;-57
2022/01/05 05:05:49;;;;;;;15.43;9.32;;;;;;;;;;4992721;28;20203;-58
2022/01/05 05:08:15;;;;;;;12.57;9.25;;;;;;;;;;5000717;28;20649;-57
2022/01/05 05:10:40;;;;;;;14.88;9.23;;;;;;;;;;5004360;28;20201;-57
2022/01/05 05:13:09;;;;;;;12.73;8.65;;;;;;;;;;4997523;28;20186;-57
2022/01/05 05:15:34;;;;;;;10.25;7.32;;;;;;;;;;5000812;28;20187;-56
2022/01/05 05:18:02;;;;;;;7.50;6.28;;;;;;;;;;4996914;28;20187;-57
2022/01/05 05:20:27;;;;;;;8.63;5.43;;;;;;;;;;4999098;28;20277;-57
2022/01/05 05:22:52;;;;;;;9.13;5.20;;;;;;;;;;4994883;28;20259;-56
2022/01/05 05:25:18;;;;;;;9.00;5.10;;;;;;;;;;4995843;28;20223;-56
2022/01/05 05:27:43;;;;;;;6.43;4.05;;;;;;;;;;4997000;28;20187;-56
2022/01/05 05:30:08;;;;;;;6.35;4.78;;;;;;;;;;5001519;28;20184;-56
2022/01/05 05:32:34;;;;;;;9.48;4.75;;;;;;;;;;4993484;28;20263;-55
2022/01/05 05:34:59;;;;;;;8.38;5.55;;;;;;;;;;4993003;28;20691;-56
2022/01/05 05:37:24;;;;;;;15.30;7.30;;;;;;;;;;4980048;28;20262;-56
2022/01/05 05:39:49;;;;;;;7.85;6.05;;;;;;;;;;4977710;28;20599;-56
2022/01/05 05:42:15;;;;;;;10.65;6.07;;;;;;;;;;4985953;28;20212;-55
2022/01/05 05:44:40;;;;;;;10.65;5.55;;;;;;;;;;4998834;28;20198;-56
2022/01/05 05:47:08;;;;;;;8.68;5.63;;;;;;;;;;4998263;28;20197;-56
2022/01/05 05:49:33;;;;;;;10.63;5.75;;;;;;;;;;4999846;28;20253;-56
2022/01/05 05:51:58;;;;;;;12.00;6.25;;;;;;;;;;4996351;28;20909;-57
2022/01/05 05:54:24;;;;;;;5.18;3.95;;;;;;;;;;5000094;28;20261;-57
2022/01/05 05:56:49;;;;;;;3.70;3.40;;;;;;;;;;4991298;28;20275;-57
2022/01/05 05:59:14;;;;;;;4.20;3.75;;;;;;;;;;4995663;28;20178;-57
2022/01/05 06:01:39;;;;;;;3.78;3.47;;;;;;;;;;4997587;28;20198;-57
2022/01/05 06:04:05;;;;;;;8.63;5.05;;;;;;;;;;5000546;28;20176;-57
2022/01/05 06:06:30;;;;;;;7.25;4.93;;;;;;;;;;4999757;28;20244;-57
2022/01/05 06:08:55;;;;;;;8.80;5.00;;;;;;;;;;4997390;28;20172;-56
2022/01/05 06:11:20;;;;;;;24.15;11.90;;;;;;;;;;5001506;28;20572;-57
2022/01/05 06:13:46;;;;;;;28.73;13.50;;;;;;;;;;5003477;28;20266;-57
2022/01/05 06:16:11;;;;;;;28.15;14.55;;;;;;;;;;4990111;28;20699;-57
2022/01/05 06:18:36;;;;;;;37.00;16.92;;;;;;;;;;4991017;28;20191;-56
2022/01/05 06:21:02;;;;;;;19.67;10.60;;;;;;;;;;4980959;28;20611;-57
2022/01/05 06:23:27;;;;;;;13.45;7.80;;;;;;;;;;4982260;28;20175;-56
2022/01/05 06:25:52;;;;;;;15.70;7.63;;;;;;;;;;4997472;28;20204;-57
2022/01/05 06:28:17;;;;;;;19.05;9.65;;;;;;;;;;4999063;28;20625;-58
2022/01/05 06:30:43;;;;;;;25.35;12.10;;;;;;;;;;4999614;28;20176;-56
2022/01/05 06:33:08;;;;;;;34.08;18.80;;;;;;;;;;5002449;28;20573;-57
2022/01/05 06:35:34;;;;;;;38.88;22.92;;;;;;;;;;5002120;28;20191;-57
2022/01/05 06:37:59;;;;;;;25.00;15.13;;;;;;;;;;5004563;28;20271;-57
2022/01/05 06:40:25;;;;;;;30.80;14.80;;;;;;;;;;5002083;28;20175;-57
2022/01/05 06:42:50;;;;;;;28.17;15.35;;;;;;;;;;5000231;28;20187;-57
2022/01/05 06:45:15;;;;;;;30.17;16.08;;;;;;;;;;5003261;28;20277;-57
2022/01/05 06:47:41;;;;;;;22.77;14.77;;;;;;;;;;5000145;28;20171;-57
2022/01/05 06:50:07;;;;;;;31.85;16.70;;;;;;;;;;4997519;28;20275;-57
2022/01/05 06:52:33;;;;;;;34.08;19.15;;;;;;;;;;5001512;28;20187;-56
2022/01/05 06:54:58;;;;;;;45.03;23.20;;;;;;;;;;4998250;28;20184;-57
2022/01/05 06:57:23;;;;;;;47.25;24.33;;;;;;;;;;5003732;28;20175;-57
2022/01/05 06:59:48;;;;;;;43.13;25.15;;;;;;;;;;5004944;28;20282;-57
2022/01/05 07:02:14;;;;;;;43.15;24.92;;;;;;;;;;4978963;28;20176;-57
2022/01/05 07:04:39;;;;;;;47.90;23.70;;;;;;;;;;4980599;28;20206;-56
2022/01/05 07:07:04;;;;;;;46.13;25.50;;;;;;;;;;4993219;28;20730;-57
2022/01/05 07:09:30;;;;;;;44.38;25.42;;;;;;;;;;4998594;28;20183;-57
2022/01/05 07:11:55;;;;;;;40.70;25.77;;;;;;;;;;5008367;28;20193;-57
2022/01/05 07:14:20;;;;;;;40.97;23.40;;;;;;;;;;5001906;28;20171;-57
2022/01/05 07:16:46;;;;;;;37.13;22.77;;;;;;;;;;4990132;28;20176;-57
2022/01/05 07:19:11;;;;;;;39.10;23.35;;;;;;;;;;5004157;28;20176;-57
2022/01/05 07:21:36;;;;;;;44.35;24.25;;;;;;;;;;5002982;28;20210;-57
2022/01/05 07:24:02;;;;;;;15.57;11.20;;;;;;;;;;4998431;28;20186;-57
2022/01/05 07:26:27;;;;;;;10.30;6.78;;;;;;;;;;5000418;28;20286;-57
2022/01/05 07:28:53;;;;;;;8.65;5.47;;;;;;;;;;4994732;28;20179;-57
2022/01/05 07:31:18;;;;;;;9.63;6.70;;;;;;;;;;4998923;28;20171;-57
2022/01/05 07:33:44;;;;;;;6.43;5.03;;;;;;;;;;4996436;28;20257;-57
2022/01/05 07:36:09;;;;;;;5.60;4.57;;;;;;;;;;4992376;28;20187;-57
2022/01/05 07:38:34;;;;;;;7.45;5.60;;;;;;;;;;4999601;28;20640;-57
2022/01/05 07:40:59;;;;;;;8.15;5.20;;;;;;;;;;5001271;28;20179;-57
2022/01/05 07:43:25;;;;;;;6.00;4.82;;;;;;;;;;5012765;28;20183;-57
2022/01/05 07:45:50;;;;;;;8.75;6.70;;;;;;;;;;4998953;28;20231;-56
2022/01/05 07:48:15;;;;;;;5.88;4.53;;;;;;;;;;5001806;28;20563;-57
2022/01/05 07:50:40;;;;;;;5.40;4.05;;;;;;;;;;5005501;28;20175;-57
2022/01/05 07:53:06;;;;;;;5.90;4.72;;;;;;;;;;5000662;28;20199;-57
2022/01/05 07:55:32;;;;;;;5.35;3.90;;;;;;;;;;5005531;28;20175;-56
2022/01/05 07:57:59;;;;;;;5.25;4.75;;;;;;;;;;5001976;28;20191;-58
2022/01/05 08:00:25;;;;;;;6.13;4.65;;;;;;;;;;4997495;28;20182;-57
2022/01/05 08:02:50;;;;;;;18.52;9.52;;;;;;;;;;4995375;28;20187;-56
2022/01/05 08:05:15;;;;;;;36.00;17.33;;;;;;;;;;4997425;28;20295;-57
2022/01/05 08:07:41;;;;;;;33.38;18.38;;;;;;;;;;4999067;28;20198;-57
2022/01/05 08:10:06;;;;;;;49.92;28.92;;;;;;;;;;4997921;28;20253;-56
2022/01/05 08:12:31;;;;;;;45.60;23.60;;;;;;;;;;4995249;28;20218;-56
2022/01/05 08:14:57;;;;;;;37.90;21.35;;;;;;;;;;5003092;28;20225;-57
2022/01/05 08:17:22;;;;;;;36.78;21.23;;;;;;;;;;4994509;28;20275;-57
2022/01/05 08:19:47;;;;;;;31.85;16.42;;;;;;;;;;4995829;28;20594;-57
2022/01/05 08:22:12;;;;;;;30.02;18.42;;;;;;;;;;4998647;28;20180;-57
2022/01/05 08:24:38;;;;;;;24.10;13.68;;;;;;;;;;4993772;28;20219;-57
2022/01/05 08:27:03;;;;;;;8.02;6.18;;;;;;;;;;4978220;28;20184;-57
2022/01/05 08:29:29;;;;;;;5.90;5.13;;;;;;;;;;4978837;28;21150;-57
2022/01/05 08:31:54;;;;;;;7.10;4.38;;;;;;;;;;4995552;28;20183;-57
2022/01/05 08:34:19;;;;;;;4.90;4.40;;;;;;;;;;4996639;28;21285;-57
2022/01/05 08:36:44;;;;;;;7.35;4.55;;;;;;;;;;5000956;28;20266;-57
2022/01/05 08:39:10;;;;;;;4.15;3.78;;;;;;;;;;4990857;28;20199;-57
2022/01/05 08:41:35;;;;;;;6.07;4.60;;;;;;;;;;4998526;28;20179;-57
2022/01/05 08:44:01;;;;;;;6.82;5.25;;;;;;;;;;5001192;28;20175;-57
2022/01/05 08:46:26;;;;;;;11.30;6.97;;;;;;;;;;4995888;28;20750;-57
2022/01/05 08:48:51;;;;;;;13.02;7.50;;;;;;;;;;4997677;28;20175;-57
2022/01/05 08:51:16;;;;;;;14.98;8.02;;;;;;;;;;4998313;28;20185;-57
2022/01/05 08:53:42;;;;;;;10.15;7.47;;;;;;;;;;4994562;28;20763;-57
2022/01/05 08:56:07;;;;;;;11.10;7.15;;;;;;;;;;5001723;28;20278;-57
2022/01/05 08:58:32;;;;;;;10.93;7.45;;;;;;;;;;4997392;28;20640;-58
2022/01/05 09:00:58;;;;;;;12.32;7.95;;;;;;;;;;4994394;28;20238;-56
2022/01/05 09:03:24;;;;;;;28.25;11.75;;;;;;;;;;5000306;28;20171;-57
2022/01/05 09:05:49;;;;;;;23.80;13.55;;;;;;;;;;5002465;28;20257;-56
2022/01/05 09:08:15;;;;;;;33.67;15.85;;;;;;;;;;4996290;28;20209;-57
2022/01/05 09:10:40;;;;;;;26.77;15.30;;;;;;;;;;4997703;28;20175;-57
2022/01/05 09:13:06;;;;;;;33.63;16.90;;;;;;;;;;4996765;28;20716;-57
2022/01/05 09:15:34;;;;;;;30.23;16.00;;;;;;;;;;4994024;28;20631;-56
2022/01/05 09:17:59;;;;;;;28.70;16.83;;;;;;;;;;5000539;28;20651;-58
2022/01/05 09:20:24;;;;;;;27.00;17.35;;;;;;;;;;4996704;28;20269;-56
2022/01/05 09:22:50;;;;;;;32.00;16.80;;;;;;;;;;4994377;28;20183;-57
2022/01/05 09:25:18;;;;;;;25.95;17.20;;;;;;;;;;4992536;28;20980;-58
2022/01/05 09:27:43;;;;;;;29.38;15.40;;;;;;;;;;4996207;28;20179;-56
2022/01/05 09:30:10;;;;;;;28.17;15.48;;;;;;;;;;4996409;28;20180;-56
2022/01/05 09:32:36;;;;;;;29.65;14.77;;;;;;;;;;4998413;28;20975;-56
2022/01/05 09:35:01;;;;;;;30.95;15.15;;;;;;;;;;5003854;28;20227;-56
2022/01/05 09:37:32;;;;;;;29.13;14.98;;;;;;;;;;5002762;28;20217;-57
2022/01/05 09:42:41;;;;;;;28.23;14.32;;;;;;;;;;4992395;28;20178;-57
2022/01/05 09:45:16;;;;;;;29.52;15.07;;;;;;;;;;4991623;28;20191;-57
2022/01/05 09:47:44;;;;;;;25.92;14.55;;;;;;;;;;4994200;28;20253;-57
2022/01/05 09:50:10;;;;;;;26.25;14.50;;;;;;;;;;4979553;28;20171;-58
2022/01/05 09:52:40;;;;;;;26.17;13.90;;;;;;;;;;4982765;28;20218;-57
2022/01/05 09:55:06;;;;;;;32.88;16.23;;;;;;;;;;5002082;28;20183;-57
2022/01/05 09:57:32;;;;;;;26.83;16.48;;;;;;;;;;4997936;28;20568;-57
2022/01/05 09:59:57;;;;;;;28.10;15.73;;;;;;;;;;4998305;28;20180;-57
2022/01/05 10:02:23;;;;;;;27.55;15.75;;;;;;;;;;5007526;28;20221;-56
2022/01/05 10:04:48;;;;;;;29.92;16.33;;;;;;;;;;5004507;28;20753;-57
2022/01/05 10:07:14;;;;;;;26.60;18.15;;;;;;;;;;5001578;28;20183;-56
2022/01/05 10:09:41;;;;;;;26.40;18.08;;;;;;;;;;4993927;28;20184;-56
2022/01/05 10:12:07;;;;;;;27.45;17.98;;;;;;;;;;4999505;28;20236;-57
2022/01/05 10:14:32;;;;;;;30.55;17.23;;;;;;;;;;5001114;28;20171;-56
2022/01/05 10:17:04;;;;;;;24.85;16.40;;;;;;;;;;4998749;28;20186;-57
2022/01/05 10:19:30;;;;;;;37.03;16.88;;;;;;;;;;5005251;28;20184;-56
2022/01/05 10:21:57;;;;;;;40.83;26.13;;;;;;;;;;4999117;28;20656;-55
2022/01/05 10:24:40;;;;;;;39.50;25.95;;;;;;;;;;4997583;28;20183;-57
2022/01/05 10:27:06;;;;;;;30.10;18.00;;;;;;;;;;4999480;28;20176;-57
2022/01/05 10:29:31;;;;;;;28.65;17.23;;;;;;;;;;5000667;28;20179;-57
2022/01/05 10:31:56;;;;;;;24.70;15.82;;;;;;;;;;5000195;28;20183;-57
2022/01/05 10:34:24;;;;;;;22.30;15.20;;;;;;;;;;4980990;28;20242;-56
2022/01/05 10:36:51;;;;;;;27.85;15.13;;;;;;;;;;5004341;28;20565;-56
2022/01/05 10:39:30;;;;;;;22.85;14.18;;;;;;;;;;4994165;28;20196;-56
2022/01/05 10:41:55;;;;;;;24.90;14.23;;;;;;;;;;5002507;28;20289;-56
2022/01/05 10:44:22;;;;;;;27.08;15.32;;;;;;;;;;4997878;28;20254;-57
2022/01/05 10:46:49;;;;;;;20.92;15.10;;;;;;;;;;4999816;28;20172;-57
2022/01/05 10:49:41;;;;;;;20.48;14.30;;;;;;;;;;5003606;28;20238;-56
2022/01/05 10:52:26;;;;;;;21.88;15.38;;;;;;;;;;5002440;28;20195;-57
2022/01/05 10:54:52;;;;;;;23.42;15.27;;;;;;;;;;4999644;28;20206;-57
2022/01/05 10:57:17;;;;;;;28.42;15.57;;;;;;;;;;5001534;28;20186;-57
2022/01/05 10:59:45;;;;;;;24.73;14.82;;;;;;;;;;4995059;28;20183;-57
2022/01/05 11:02:21;;;;;;;24.60;15.02;;;;;;;;;;4992675;28;20188;-57
2022/01/05 11:04:46;;;;;;;23.80;14.90;;;;;;;;;;5004213;28;20214;-57
2022/01/05 11:07:18;;;;;;;24.30;15.35;;;;;;;;;;5005178;28;20180;-57
2022/01/05 11:09:51;;;;;;;150.82;24.05;;;;;;;;;;4995419;28;20184;-57
2022/01/05 11:12:16;;;;;;;23.38;14.98;;;;;;;;;;4997488;28;20186;-57
2022/01/05 11:14:41;;;;;;;27.45;16.83;;;;;;;;;;4998283;28;20171;-57
2022/01/05 11:17:06;;;;;;;20.83;15.50;;;;;;;;;;5000067;28;20292;-57
2022/01/05 11:19:39;;;;;;;25.45;15.52;;;;;;;;;;5001542;28;20179;-57
2022/01/05 11:22:14;;;;;;;34.65;15.70;;;;;;;;;;5006414;28;20226;-57
2022/01/05 11:24:47;;;;;;;22.40;14.48;;;;;;;;;;4994716;28;20225;-57
2022/01/05 11:27:14;;;;;;;29.88;14.98;;;;;;;;;;5016277;28;20214;-57
2022/01/05 11:29:40;;;;;;;19.60;13.98;;;;;;;;;;5002863;28;20773;-57
2022/01/05 11:32:06;;;;;;;24.02;15.25;;;;;;;;;;5000817;28;20179;-56
2022/01/05 11:34:32;;;;;;;24.27;14.57;;;;;;;;;;4999312;28;20201;-57
2022/01/05 11:36:58;;;;;;;23.85;14.77;;;;;;;;;;4998627;28;20182;-57
2022/01/05 11:39:24;;;;;;;24.45;16.00;;;;;;;;;;5000547;28;20187;-58
2022/01/05 11:41:50;;;;;;;21.00;14.38;;;;;;;;;;4995338;28;20175;-58
2022/01/05 11:44:17;;;;;;;30.65;17.00;;;;;;;;;;4998603;28;20183;-57
2022/01/05 11:46:44;;;;;;;23.75;14.32;;;;;;;;;;4996055;28;20204;-57
2022/01/05 11:49:11;;;;;;;24.08;15.63;;;;;;;;;;5005013;28;20633;-57
2022/01/05 11:51:42;;;;;;;33.88;16.55;;;;;;;;;;5000853;28;20191;-57
2022/01/05 11:54:16;;;;;;;30.95;17.52;;;;;;;;;;4990474;28;20623;-57
2022/01/05 11:56:43;;;;;;;22.17;15.45;;;;;;;;;;4997644;28;20178;-57
2022/01/05 11:59:22;;;;;;;25.88;15.00;;;;;;;;;;4999256;28;20179;-58
2022/01/05 12:02:17;;;;;;;19.63;14.73;;;;;;;;;;4995583;28;20187;-58
2022/01/05 12:05:03;;;;;;;23.88;15.38;;;;;;;;;;4995165;28;20216;-57
2022/01/05 12:07:38;;;;;;;21.48;15.00;;;;;;;;;;4996983;28;20644;-58
2022/01/05 12:10:18;;;;;;;28.58;15.52;;;;;;;;;;5005192;28;20648;-58
2022/01/05 12:12:53;;;;;;;31.77;13.90;;;;;;;;;;5000072;28;20688;-57
2022/01/05 12:15:38;;;;;;;22.88;13.63;;;;;;;;;;4994830;28;20690;-57
2022/01/05 12:18:03;;;;;;;21.70;13.30;;;;;;;;;;4977508;28;20176;-57
2022/01/05 12:20:33;;;;;;;19.83;12.52;;;;;;;;;;4979453;28;20199;-57
2022/01/05 12:23:14;;;;;;;20.83;13.65;;;;;;;;;;5003609;28;20186;-58
2022/01/05 12:25:59;;;;;;;21.15;13.35;;;;;;;;;;5001636;28;20209;-57
2022/01/05 12:28:28;;;;;;;22.70;12.43;;;;;;;;;;4997128;28;20186;-57
2022/01/05 12:30:53;;;;;;;19.10;13.27;;;;;;;;;;4997825;28;20187;-57
2022/01/05 12:33:19;;;;;;;20.23;12.48;;;;;;;;;;4995560;28;20171;-58
2022/01/05 12:35:47;;;;;;;21.60;12.98;;;;;;;;;;4995756;28;20209;-57
2022/01/05 12:38:29;;;;;;;23.42;12.27;;;;;;;;;;4982091;28;20191;-57
2022/01/05 12:40:54;;;;;;;19.38;12.63;;;;;;;;;;4996423;28;20300;-58
2022/01/05 12:43:20;;;;;;;23.25;12.02;;;;;;;;;;5001573;28;20559;-57
2022/01/05 12:45:56;;;;;;;16.90;12.82;;;;;;;;;;4992787;28;20651;-57
2022/01/05 12:48:39;;;;;;;17.88;12.68;;;;;;;;;;5006818;28;20657;-57
2022/01/05 12:53:52;;;;;;;19.20;12.85;;;;;;;;;;4995977;28;20194;-57
2022/01/05 12:56:21;;;;;;;18.95;12.75;;;;;;;;;;4994124;28;20186;-57
2022/01/05 12:58:51;;;;;;;17.40;11.73;;;;;;;;;;4995694;28;20179;-58
2022/01/05 13:01:17;;;;;;;18.60;12.10;;;;;;;;;;4997298;28;20211;-56
2022/01/05 13:03:42;;;;;;;19.75;13.02;;;;;;;;;;4999800;28;20218;-56
2022/01/05 13:06:18;;;;;;;16.33;11.80;;;;;;;;;;4993605;28;20199;-57
2022/01/05 13:09:09;;;;;;;19.30;12.50;;;;;;;;;;4986544;28;20732;-57
2022/01/05 13:11:38;;;;;;;18.35;12.48;;;;;;;;;;5001038;28;20192;-57
2022/01/05 13:14:14;;;;;;;19.33;11.75;;;;;;;;;;5000121;28;20540;-57
2022/01/05 13:16:39;;;;;;;17.38;11.85;;;;;;;;;;4990152;28;20186;-57
2022/01/05 13:19:10;;;;;;;17.02;12.25;;;;;;;;;;4998273;28;20745;-57
2022/01/05 13:21:42;;;;;;;14.10;11.40;;;;;;;;;;4996895;28;20187;-57
2022/01/05 13:24:08;;;;;;;16.40;11.35;;;;;;;;;;4998497;28;20679;-57
2022/01/05 13:26:33;;;;;;;19.55;11.25;;;;;;;;;;4995441;28;20214;-57
2022/01/05 13:29:18;;;;;;;17.23;10.52;;;;;;;;;;4998231;28;20538;-57
2022/01/05 13:31:53;;;;;;;14.82;9.85;;;;;;;;;;4995250;28;20555;-57
2022/01/05 13:34:27;;;;;;;15.15;10.20;;;;;;;;;;5000435;28;20182;-57
2022/01/05 13:36:53;;;;;;;15.57;10.48;;;;;;;;;;4998712;28;20229;-57
2022/01/05 13:39:38;;;;;;;14.02;10.02;;;;;;;;;;5003122;28;20188;-57
2022/01/05 13:42:04;;;;;;;16.05;10.23;;;;;;;;;;4995662;28;20201;-56
2022/01/05 13:44:29;;;;;;;11.90;9.07;;;;;;;;;;4996281;28;20178;-57
2022/01/05 13:46:55;;;;;;;13.90;9.98;;;;;;;;;;4999215;28;20194;-57
2022/01/05 13:49:20;;;;;;;14.48;10.52;;;;;;;;;;4997472;28;20182;-57
2022/01/05 13:52:05;;;;;;;15.27;9.80;;;;;;;;;;4992208;28;20200;-57
2022/01/05 13:54:40;;;;;;;12.98;9.18;;;;;;;;;;4994770;28;20199;-57
2022/01/05 13:57:07;;;;;;;14.35;10.05;;;;;;;;;;5001991;28;20253;-56
2022/01/05 13:59:43;;;;;;;12.85;9.40;;;;;;;;;;5001474;28;20290;-56
2022/01/05 14:02:11;;;;;;;14.80;9.35;;;;;;;;;;4997581;28;20564;-57
2022/01/05 14:04:49;;;;;;;11.80;8.80;;;;;;;;;;4995060;28;20183;-57
2022/01/05 14:07:18;;;;;;;12.05;8.90;;;;;;;;;;4997008;28;20176;-56
2022/01/05 14:09:44;;;;;;;13.75;9.27;;;;;;;;;;4997345;28;20193;-57
2022/01/05 14:12:29;;;;;;;12.32;9.25;;;;;;;;;;4997992;28;20684;-57
2022/01/05 14:14:55;;;;;;;12.00;9.10;;;;;;;;;;4996389;28;20211;-57
2022/01/05 14:17:20;;;;;;;11.23;9.50;;;;;;;;;;5000144;28;20194;-57
2022/01/05 14:19:45;;;;;;;12.60;9.00;;;;;;;;;;4997335;28;20760;-57
2022/01/05 14:22:14;;;;;;;12.88;9.38;;;;;;;;;;4990971;28;20237;-56
2022/01/05 14:24:41;;;;;;;15.32;10.35;;;;;;;;;;4995677;28;20181;-57
2022/01/05 14:27:14;;;;;;;15.07;10.10;;;;;;;;;;4997832;28;20841;-57
2022/01/05 14:29:40;;;;;;;14.23;9.23;;;;;;;;;;4996374;28;21053;-57
2022/01/05 14:32:06;;;;;;;15.27;9.55;;;;;;;;;;5002699;28;20190;-57
2022/01/05 14:34:37;;;;;;;12.77;9.55;;;;;;;;;;4998539;28;20245;-58
2022/01/05 14:37:04;;;;;;;12.55;8.93;;;;;;;;;;4999439;28;20266;-56